sensor_id;sensor_type;location;lat;lon;timestamp;P1;durP1;ratioP1;P2;durP2;ratioP2
37609;SDS011;23457;51.966;8.230;2023-06-14T00:02:17;9.23;;;2.42;;
37609;SDS011;23457;51.966;8.230;2023-06-14T00:04:43;7.43;;;2.65;;
37609;SDS011;23457;51.966;8.230;2023-06-14T00:07:11;4.47;;;2.10;;
37609;SDS011;23457;51.966;8.230;2023-06-14T00:09:40;8.00;;;2.43;;
37609;SDS011;23457;51.966;8.230;2023-06-14T00:12:07;5.20;;;2.22;;
37609;SDS011;23457;51.966;8.230;2023-06-14T00:14:35;3.35;;;2.35;;
37609;SDS011;23457;51.966;8.230;2023-06-14T00:17:01;3.97;;;2.25;;
37609;SDS011;23457;51.966;8.230;2023-06-14T00:19:29;4.97;;;2.17;;
37609;SDS011;23457;51.966;8.230;2023-06-14T00:22:01;5.13;;;2.17;;
37609;SDS011;23457;51.966;8.230;2023-06-14T00:24:29;5.72;;;2.00;;
37609;SDS011;23457;51.966;8.230;2023-06-14T00:26:56;6.20;;;2.22;;
37609;SDS011;23457;51.966;8.230;2023-06-14T00:29:23;9.70;;;2.50;;
37609;SDS011;23457;51.966;8.230;2023-06-14T00:31:49;5.53;;;2.33;;
37609;SDS011;23457;51.966;8.230;2023-06-14T00:34:17;5.20;;;2.10;;
37609;SDS011;23457;51.966;8.230;2023-06-14T00:36:44;5.45;;;2.30;;
37609;SDS011;23457;51.966;8.230;2023-06-14T00:39:13;3.78;;;2.20;;
37609;SDS011;23457;51.966;8.230;2023-06-14T00:41:40;4.28;;;2.40;;
37609;SDS011;23457;51.966;8.230;2023-06-14T00:44:06;4.90;;;2.17;;
37609;SDS011;23457;51.966;8.230;2023-06-14T00:46:33;4.85;;;2.47;;
37609;SDS011;23457;51.966;8.230;2023-06-14T00:49:00;5.35;;;2.55;;
37609;SDS011;23457;51.966;8.230;2023-06-14T00:51:28;4.97;;;2.03;;
37609;SDS011;23457;51.966;8.230;2023-06-14T00:53:54;6.03;;;2.40;;
37609;SDS011;23457;51.966;8.230;2023-06-14T00:56:21;4.65;;;1.80;;
37609;SDS011;23457;51.966;8.230;2023-06-14T00:58:50;3.17;;;2.00;;
37609;SDS011;23457;51.966;8.230;2023-06-14T01:01:17;8.88;;;2.30;;
37609;SDS011;23457;51.966;8.230;2023-06-14T01:03:44;7.80;;;2.40;;
37609;SDS011;23457;51.966;8.230;2023-06-14T01:11:47;8.07;;;2.50;;
37609;SDS011;23457;51.966;8.230;2023-06-14T01:14:20;5.85;;;2.92;;
37609;SDS011;23457;51.966;8.230;2023-06-14T01:16:48;2.75;;;1.95;;
37609;SDS011;23457;51.966;8.230;2023-06-14T01:19:20;5.78;;;2.47;;
37609;SDS011;23457;51.966;8.230;2023-06-14T01:21:49;3.78;;;2.15;;
37609;SDS011;23457;51.966;8.230;2023-06-14T01:24:17;3.65;;;2.20;;
37609;SDS011;23457;51.966;8.230;2023-06-14T01:26:46;3.45;;;2.25;;
37609;SDS011;23457;51.966;8.230;2023-06-14T01:29:18;2.92;;;2.15;;
37609;SDS011;23457;51.966;8.230;2023-06-14T01:31:45;4.63;;;2.10;;
37609;SDS011;23457;51.966;8.230;2023-06-14T01:34:12;3.30;;;2.10;;
37609;SDS011;23457;51.966;8.230;2023-06-14T01:36:40;5.80;;;2.35;;
37609;SDS011;23457;51.966;8.230;2023-06-14T01:39:07;4.90;;;2.28;;
37609;SDS011;23457;51.966;8.230;2023-06-14T01:41:35;7.88;;;2.60;;
37609;SDS011;23457;51.966;8.230;2023-06-14T01:44:02;6.30;;;2.35;;
37609;SDS011;23457;51.966;8.230;2023-06-14T01:46:32;4.50;;;2.00;;
37609;SDS011;23457;51.966;8.230;2023-06-14T01:48:59;6.38;;;2.30;;
37609;SDS011;23457;51.966;8.230;2023-06-14T01:51:26;4.43;;;1.95;;
37609;SDS011;23457;51.966;8.230;2023-06-14T01:53:52;3.38;;;2.08;;
37609;SDS011;23457;51.966;8.230;2023-06-14T01:56:19;3.03;;;2.22;;
37609;SDS011;23457;51.966;8.230;2023-06-14T01:58:47;2.95;;;2.30;;
37609;SDS011;23457;51.966;8.230;2023-06-14T02:01:14;4.57;;;2.38;;
37609;SDS011;23457;51.966;8.230;2023-06-14T02:06:14;3.58;;;2.20;;
37609;SDS011;23457;51.966;8.230;2023-06-14T02:08:42;4.82;;;2.45;;
37609;SDS011;23457;51.966;8.230;2023-06-14T02:11:08;5.57;;;2.40;;
37609;SDS011;23457;51.966;8.230;2023-06-14T02:13:35;3.15;;;2.10;;
37609;SDS011;23457;51.966;8.230;2023-06-14T02:16:02;4.47;;;2.47;;
37609;SDS011;23457;51.966;8.230;2023-06-14T02:18:29;3.45;;;2.08;;
37609;SDS011;23457;51.966;8.230;2023-06-14T02:20:56;3.97;;;2.55;;
37609;SDS011;23457;51.966;8.230;2023-06-14T02:23:23;5.03;;;2.35;;
37609;SDS011;23457;51.966;8.230;2023-06-14T02:25:50;4.75;;;2.10;;
37609;SDS011;23457;51.966;8.230;2023-06-14T02:28:17;4.90;;;2.30;;
37609;SDS011;23457;51.966;8.230;2023-06-14T02:30:43;7.85;;;2.28;;
37609;SDS011;23457;51.966;8.230;2023-06-14T02:33:10;3.47;;;2.10;;
37609;SDS011;23457;51.966;8.230;2023-06-14T02:35:39;5.65;;;2.60;;
37609;SDS011;23457;51.966;8.230;2023-06-14T02:38:07;4.38;;;2.28;;
37609;SDS011;23457;51.966;8.230;2023-06-14T02:40:34;4.60;;;2.47;;
37609;SDS011;23457;51.966;8.230;2023-06-14T02:43:00;2.90;;;2.10;;
37609;SDS011;23457;51.966;8.230;2023-06-14T02:45:28;7.00;;;2.47;;
37609;SDS011;23457;51.966;8.230;2023-06-14T02:47:54;7.88;;;2.30;;
37609;SDS011;23457;51.966;8.230;2023-06-14T02:50:22;8.40;;;2.50;;
37609;SDS011;23457;51.966;8.230;2023-06-14T02:52:50;6.30;;;2.25;;
37609;SDS011;23457;51.966;8.230;2023-06-14T02:55:16;6.55;;;2.30;;
37609;SDS011;23457;51.966;8.230;2023-06-14T02:57:44;6.05;;;2.65;;
37609;SDS011;23457;51.966;8.230;2023-06-14T03:00:10;8.05;;;2.50;;
37609;SDS011;23457;51.966;8.230;2023-06-14T03:02:42;4.18;;;2.47;;
37609;SDS011;23457;51.966;8.230;2023-06-14T03:05:10;5.68;;;1.98;;
37609;SDS011;23457;51.966;8.230;2023-06-14T03:07:38;3.95;;;2.40;;
37609;SDS011;23457;51.966;8.230;2023-06-14T03:10:11;4.03;;;2.30;;
37609;SDS011;23457;51.966;8.230;2023-06-14T03:12:41;5.85;;;2.33;;
37609;SDS011;23457;51.966;8.230;2023-06-14T03:15:09;7.28;;;2.30;;
37609;SDS011;23457;51.966;8.230;2023-06-14T03:17:40;8.57;;;2.47;;
37609;SDS011;23457;51.966;8.230;2023-06-14T03:20:07;6.03;;;2.45;;
37609;SDS011;23457;51.966;8.230;2023-06-14T03:22:35;6.88;;;2.08;;
37609;SDS011;23457;51.966;8.230;2023-06-14T03:25:02;4.88;;;2.80;;
37609;SDS011;23457;51.966;8.230;2023-06-14T03:27:33;3.20;;;2.10;;
37609;SDS011;23457;51.966;8.230;2023-06-14T03:30:00;6.82;;;2.63;;
37609;SDS011;23457;51.966;8.230;2023-06-14T03:32:29;5.68;;;2.60;;
37609;SDS011;23457;51.966;8.230;2023-06-14T03:34:59;4.68;;;2.35;;
37609;SDS011;23457;51.966;8.230;2023-06-14T03:37:26;4.88;;;2.65;;
37609;SDS011;23457;51.966;8.230;2023-06-14T03:39:53;6.55;;;2.88;;
37609;SDS011;23457;51.966;8.230;2023-06-14T03:42:23;4.55;;;2.05;;
37609;SDS011;23457;51.966;8.230;2023-06-14T03:44:50;5.20;;;2.47;;
37609;SDS011;23457;51.966;8.230;2023-06-14T03:47:18;4.55;;;2.53;;
37609;SDS011;23457;51.966;8.230;2023-06-14T03:49:46;8.07;;;2.83;;
37609;SDS011;23457;51.966;8.230;2023-06-14T03:52:12;3.72;;;2.28;;
37609;SDS011;23457;51.966;8.230;2023-06-14T03:54:42;9.18;;;2.30;;
37609;SDS011;23457;51.966;8.230;2023-06-14T03:57:32;3.53;;;2.25;;
37609;SDS011;23457;51.966;8.230;2023-06-14T03:59:58;5.25;;;2.38;;
37609;SDS011;23457;51.966;8.230;2023-06-14T04:02:26;2.92;;;2.30;;
37609;SDS011;23457;51.966;8.230;2023-06-14T04:04:55;6.45;;;2.58;;
37609;SDS011;23457;51.966;8.230;2023-06-14T04:07:22;5.93;;;2.22;;
37609;SDS011;23457;51.966;8.230;2023-06-14T04:09:49;5.05;;;2.28;;
37609;SDS011;23457;51.966;8.230;2023-06-14T04:12:17;9.52;;;2.90;;
37609;SDS011;23457;51.966;8.230;2023-06-14T04:14:43;3.78;;;2.63;;
37609;SDS011;23457;51.966;8.230;2023-06-14T04:17:11;7.88;;;2.50;;
37609;SDS011;23457;51.966;8.230;2023-06-14T04:19:39;2.47;;;1.80;;
37609;SDS011;23457;51.966;8.230;2023-06-14T04:22:07;10.77;;;2.40;;
37609;SDS011;23457;51.966;8.230;2023-06-14T04:24:35;2.35;;;1.92;;
37609;SDS011;23457;51.966;8.230;2023-06-14T04:27:02;4.20;;;2.55;;
37609;SDS011;23457;51.966;8.230;2023-06-14T04:29:30;3.20;;;2.22;;
37609;SDS011;23457;51.966;8.230;2023-06-14T04:32:04;4.85;;;2.08;;
37609;SDS011;23457;51.966;8.230;2023-06-14T04:34:32;7.88;;;2.47;;
37609;SDS011;23457;51.966;8.230;2023-06-14T04:37:01;3.90;;;2.50;;
37609;SDS011;23457;51.966;8.230;2023-06-14T04:39:31;6.85;;;1.95;;
37609;SDS011;23457;51.966;8.230;2023-06-14T04:42:00;3.07;;;2.10;;
37609;SDS011;23457;51.966;8.230;2023-06-14T04:44:27;3.88;;;2.40;;
37609;SDS011;23457;51.966;8.230;2023-06-14T04:47:00;3.67;;;2.20;;
37609;SDS011;23457;51.966;8.230;2023-06-14T04:49:27;6.22;;;2.30;;
37609;SDS011;23457;51.966;8.230;2023-06-14T04:51:53;2.95;;;2.05;;
37609;SDS011;23457;51.966;8.230;2023-06-14T04:54:33;8.30;;;1.95;;
37609;SDS011;23457;51.966;8.230;2023-06-14T04:57:06;5.10;;;2.20;;
37609;SDS011;23457;51.966;8.230;2023-06-14T04:59:33;3.53;;;2.00;;
37609;SDS011;23457;51.966;8.230;2023-06-14T05:02:01;2.45;;;2.25;;
37609;SDS011;23457;51.966;8.230;2023-06-14T05:04:28;3.67;;;2.13;;
37609;SDS011;23457;51.966;8.230;2023-06-14T05:06:57;4.17;;;1.90;;
37609;SDS011;23457;51.966;8.230;2023-06-14T05:09:24;4.63;;;2.42;;
37609;SDS011;23457;51.966;8.230;2023-06-14T05:11:51;3.00;;;2.08;;
37609;SDS011;23457;51.966;8.230;2023-06-14T05:14:17;2.92;;;2.05;;
37609;SDS011;23457;51.966;8.230;2023-06-14T05:16:45;3.53;;;2.25;;
37609;SDS011;23457;51.966;8.230;2023-06-14T05:19:12;5.35;;;1.92;;
37609;SDS011;23457;51.966;8.230;2023-06-14T05:21:39;3.58;;;1.90;;
37609;SDS011;23457;51.966;8.230;2023-06-14T05:24:09;3.45;;;2.08;;
37609;SDS011;23457;51.966;8.230;2023-06-14T05:26:36;6.85;;;2.33;;
37609;SDS011;23457;51.966;8.230;2023-06-14T05:29:02;3.92;;;2.00;;
37609;SDS011;23457;51.966;8.230;2023-06-14T05:31:29;4.53;;;1.98;;
37609;SDS011;23457;51.966;8.230;2023-06-14T05:33:56;4.45;;;2.15;;
37609;SDS011;23457;51.966;8.230;2023-06-14T05:36:23;5.63;;;2.22;;
37609;SDS011;23457;51.966;8.230;2023-06-14T05:38:50;7.25;;;2.38;;
37609;SDS011;23457;51.966;8.230;2023-06-14T05:43:56;3.28;;;1.90;;
37609;SDS011;23457;51.966;8.230;2023-06-14T05:46:24;5.28;;;2.15;;
37609;SDS011;23457;51.966;8.230;2023-06-14T05:48:52;5.82;;;2.80;;
37609;SDS011;23457;51.966;8.230;2023-06-14T05:51:19;3.97;;;2.25;;
37609;SDS011;23457;51.966;8.230;2023-06-14T05:53:46;7.53;;;1.75;;
37609;SDS011;23457;51.966;8.230;2023-06-14T05:56:14;6.95;;;2.40;;
37609;SDS011;23457;51.966;8.230;2023-06-14T05:58:41;6.57;;;2.08;;
37609;SDS011;23457;51.966;8.230;2023-06-14T06:01:08;5.72;;;1.90;;
37609;SDS011;23457;51.966;8.230;2023-06-14T06:03:35;2.22;;;1.40;;
37609;SDS011;23457;51.966;8.230;2023-06-14T06:06:02;9.52;;;2.13;;
37609;SDS011;23457;51.966;8.230;2023-06-14T06:08:29;5.85;;;2.55;;
37609;SDS011;23457;51.966;8.230;2023-06-14T06:10:56;5.20;;;2.10;;
37609;SDS011;23457;51.966;8.230;2023-06-14T06:13:23;5.00;;;1.60;;
37609;SDS011;23457;51.966;8.230;2023-06-14T06:15:50;4.05;;;1.65;;
37609;SDS011;23457;51.966;8.230;2023-06-14T06:18:16;4.68;;;1.60;;
37609;SDS011;23457;51.966;8.230;2023-06-14T06:20:43;2.90;;;1.58;;
37609;SDS011;23457;51.966;8.230;2023-06-14T06:23:10;4.60;;;1.83;;
37609;SDS011;23457;51.966;8.230;2023-06-14T06:25:37;5.40;;;1.50;;
37609;SDS011;23457;51.966;8.230;2023-06-14T06:28:03;3.80;;;1.85;;
37609;SDS011;23457;51.966;8.230;2023-06-14T06:30:32;3.90;;;1.50;;
37609;SDS011;23457;51.966;8.230;2023-06-14T06:32:58;3.22;;;1.80;;
37609;SDS011;23457;51.966;8.230;2023-06-14T06:35:25;5.10;;;1.95;;
37609;SDS011;23457;51.966;8.230;2023-06-14T06:37:53;3.08;;;1.70;;
37609;SDS011;23457;51.966;8.230;2023-06-14T06:40:20;5.20;;;1.55;;
37609;SDS011;23457;51.966;8.230;2023-06-14T06:42:47;2.95;;;1.27;;
37609;SDS011;23457;51.966;8.230;2023-06-14T06:45:16;7.00;;;1.80;;
37609;SDS011;23457;51.966;8.230;2023-06-14T06:47:43;1.70;;;1.33;;
37609;SDS011;23457;51.966;8.230;2023-06-14T06:50:10;2.65;;;1.33;;
37609;SDS011;23457;51.966;8.230;2023-06-14T06:52:37;3.28;;;1.40;;
37609;SDS011;23457;51.966;8.230;2023-06-14T06:55:04;6.03;;;1.73;;
37609;SDS011;23457;51.966;8.230;2023-06-14T06:57:31;3.78;;;1.38;;
37609;SDS011;23457;51.966;8.230;2023-06-14T06:59:57;1.65;;;1.20;;
37609;SDS011;23457;51.966;8.230;2023-06-14T07:02:24;1.73;;;1.25;;
37609;SDS011;23457;51.966;8.230;2023-06-14T07:04:51;3.10;;;1.42;;
37609;SDS011;23457;51.966;8.230;2023-06-14T07:07:17;3.33;;;1.15;;
37609;SDS011;23457;51.966;8.230;2023-06-14T07:09:44;6.03;;;1.30;;
37609;SDS011;23457;51.966;8.230;2023-06-14T07:12:12;1.90;;;0.98;;
37609;SDS011;23457;51.966;8.230;2023-06-14T07:14:38;4.60;;;1.30;;
37609;SDS011;23457;51.966;8.230;2023-06-14T07:17:05;1.13;;;1.00;;
37609;SDS011;23457;51.966;8.230;2023-06-14T07:19:32;2.30;;;1.08;;
37609;SDS011;23457;51.966;8.230;2023-06-14T07:22:00;4.43;;;1.65;;
37609;SDS011;23457;51.966;8.230;2023-06-14T07:24:27;2.45;;;1.10;;
37609;SDS011;23457;51.966;8.230;2023-06-14T07:26:56;1.17;;;0.93;;
37609;SDS011;23457;51.966;8.230;2023-06-14T07:29:23;3.88;;;0.98;;
37609;SDS011;23457;51.966;8.230;2023-06-14T07:31:49;6.43;;;1.20;;
37609;SDS011;23457;51.966;8.230;2023-06-14T07:34:16;6.10;;;1.10;;
37609;SDS011;23457;51.966;8.230;2023-06-14T07:36:42;1.95;;;1.02;;
37609;SDS011;23457;51.966;8.230;2023-06-14T07:39:11;2.83;;;1.05;;
37609;SDS011;23457;51.966;8.230;2023-06-14T07:41:37;2.60;;;1.10;;
37609;SDS011;23457;51.966;8.230;2023-06-14T07:44:04;1.38;;;0.90;;
37609;SDS011;23457;51.966;8.230;2023-06-14T07:46:31;1.15;;;1.00;;
37609;SDS011;23457;51.966;8.230;2023-06-14T07:48:57;3.45;;;1.10;;
37609;SDS011;23457;51.966;8.230;2023-06-14T07:51:24;3.25;;;1.02;;
37609;SDS011;23457;51.966;8.230;2023-06-14T07:53:51;1.48;;;0.93;;
37609;SDS011;23457;51.966;8.230;2023-06-14T07:56:18;2.63;;;1.13;;
37609;SDS011;23457;51.966;8.230;2023-06-14T07:58:50;3.35;;;1.20;;
37609;SDS011;23457;51.966;8.230;2023-06-14T08:01:17;4.15;;;1.35;;
37609;SDS011;23457;51.966;8.230;2023-06-14T08:03:45;7.15;;;3.45;;
37609;SDS011;23457;51.966;8.230;2023-06-14T08:06:12;5.68;;;1.10;;
37609;SDS011;23457;51.966;8.230;2023-06-14T08:08:39;1.38;;;0.95;;
37609;SDS011;23457;51.966;8.230;2023-06-14T08:11:05;4.85;;;1.27;;
37609;SDS011;23457;51.966;8.230;2023-06-14T08:13:32;3.08;;;0.98;;
37609;SDS011;23457;51.966;8.230;2023-06-14T08:15:59;2.65;;;0.95;;
37609;SDS011;23457;51.966;8.230;2023-06-14T08:18:27;1.90;;;1.30;;
37609;SDS011;23457;51.966;8.230;2023-06-14T08:20:54;2.25;;;0.95;;
37609;SDS011;23457;51.966;8.230;2023-06-14T08:23:20;1.63;;;1.15;;
37609;SDS011;23457;51.966;8.230;2023-06-14T08:25:49;1.47;;;0.97;;
37609;SDS011;23457;51.966;8.230;2023-06-14T08:28:27;1.45;;;1.08;;
37609;SDS011;23457;51.966;8.230;2023-06-14T08:34:48;1.23;;;1.08;;
37609;SDS011;23457;51.966;8.230;2023-06-14T08:37:30;2.97;;;0.85;;
37609;SDS011;23457;51.966;8.230;2023-06-14T08:39:57;2.33;;;1.00;;
37609;SDS011;23457;51.966;8.230;2023-06-14T08:42:24;1.20;;;0.90;;
37609;SDS011;23457;51.966;8.230;2023-06-14T08:45:04;1.48;;;0.90;;
37609;SDS011;23457;51.966;8.230;2023-06-14T08:47:42;3.97;;;1.15;;
37609;SDS011;23457;51.966;8.230;2023-06-14T08:54:48;3.65;;;1.10;;
37609;SDS011;23457;51.966;8.230;2023-06-14T08:57:15;2.53;;;1.00;;
37609;SDS011;23457;51.966;8.230;2023-06-14T08:59:47;2.22;;;1.15;;
37609;SDS011;23457;51.966;8.230;2023-06-14T09:02:19;3.13;;;1.10;;
37609;SDS011;23457;51.966;8.230;2023-06-14T09:04:51;4.65;;;1.20;;
37609;SDS011;23457;51.966;8.230;2023-06-14T09:07:18;1.77;;;0.98;;
37609;SDS011;23457;51.966;8.230;2023-06-14T09:10:07;2.83;;;1.20;;
37609;SDS011;23457;51.966;8.230;2023-06-14T09:12:46;1.98;;;1.10;;
37609;SDS011;23457;51.966;8.230;2023-06-14T09:15:18;3.47;;;1.20;;
37609;SDS011;23457;51.966;8.230;2023-06-14T09:17:50;4.13;;;1.38;;
37609;SDS011;23457;51.966;8.230;2023-06-14T09:20:31;1.75;;;1.23;;
37609;SDS011;23457;51.966;8.230;2023-06-14T09:23:06;3.78;;;1.20;;
37609;SDS011;23457;51.966;8.230;2023-06-14T09:25:48;3.50;;;1.55;;
37609;SDS011;23457;51.966;8.230;2023-06-14T09:28:26;1.85;;;1.23;;
37609;SDS011;23457;51.966;8.230;2023-06-14T09:31:01;2.97;;;1.65;;
37609;SDS011;23457;51.966;8.230;2023-06-14T09:33:32;1.92;;;1.48;;
37609;SDS011;23457;51.966;8.230;2023-06-14T09:39:25;1.38;;;1.25;;
37609;SDS011;23457;51.966;8.230;2023-06-14T09:42:19;4.22;;;1.60;;
37609;SDS011;23457;51.966;8.230;2023-06-14T09:44:51;2.13;;;1.40;;
37609;SDS011;23457;51.966;8.230;2023-06-14T09:47:23;4.47;;;1.27;;
37609;SDS011;23457;51.966;8.230;2023-06-14T09:49:52;2.67;;;1.30;;
37609;SDS011;23457;51.966;8.230;2023-06-14T09:52:22;4.90;;;1.17;;
37609;SDS011;23457;51.966;8.230;2023-06-14T09:54:53;4.45;;;1.50;;
37609;SDS011;23457;51.966;8.230;2023-06-14T09:57:22;3.17;;;1.60;;
37609;SDS011;23457;51.966;8.230;2023-06-14T09:59:56;6.28;;;1.30;;
37609;SDS011;23457;51.966;8.230;2023-06-14T10:02:38;6.90;;;1.52;;
37609;SDS011;23457;51.966;8.230;2023-06-14T10:05:11;1.60;;;1.10;;
37609;SDS011;23457;51.966;8.230;2023-06-14T10:07:52;1.95;;;1.27;;
37609;SDS011;23457;51.966;8.230;2023-06-14T10:10:39;3.60;;;1.17;;
37609;SDS011;23457;51.966;8.230;2023-06-14T10:13:15;4.32;;;1.50;;
37609;SDS011;23457;51.966;8.230;2023-06-14T10:18:35;1.85;;;1.30;;
37609;SDS011;23457;51.966;8.230;2023-06-14T10:24:09;4.65;;;1.45;;
37609;SDS011;23457;51.966;8.230;2023-06-14T10:26:53;3.22;;;1.52;;
37609;SDS011;23457;51.966;8.230;2023-06-14T10:29:26;4.38;;;1.40;;
37609;SDS011;23457;51.966;8.230;2023-06-14T10:31:59;2.45;;;1.20;;
37609;SDS011;23457;51.966;8.230;2023-06-14T10:34:30;5.40;;;1.60;;
37609;SDS011;23457;51.966;8.230;2023-06-14T10:39:38;4.55;;;1.70;;
37609;SDS011;23457;51.966;8.230;2023-06-14T10:42:10;2.58;;;1.67;;
37609;SDS011;23457;51.966;8.230;2023-06-14T10:44:44;3.03;;;1.80;;
37609;SDS011;23457;51.966;8.230;2023-06-14T10:52:28;1.38;;;1.27;;
37609;SDS011;23457;51.966;8.230;2023-06-14T10:55:12;4.43;;;1.55;;
37609;SDS011;23457;51.966;8.230;2023-06-14T11:00:22;2.90;;;1.33;;
37609;SDS011;23457;51.966;8.230;2023-06-14T11:06:15;1.93;;;1.50;;
37609;SDS011;23457;51.966;8.230;2023-06-14T11:11:14;2.20;;;1.60;;
37609;SDS011;23457;51.966;8.230;2023-06-14T11:13:44;2.90;;;1.33;;
37609;SDS011;23457;51.966;8.230;2023-06-14T11:16:15;1.95;;;1.55;;
37609;SDS011;23457;51.966;8.230;2023-06-14T11:18:43;2.58;;;1.33;;
37609;SDS011;23457;51.966;8.230;2023-06-14T11:21:18;3.00;;;1.45;;
37609;SDS011;23457;51.966;8.230;2023-06-14T11:23:51;2.13;;;1.60;;
37609;SDS011;23457;51.966;8.230;2023-06-14T11:26:27;2.90;;;1.50;;
37609;SDS011;23457;51.966;8.230;2023-06-14T11:29:00;3.03;;;1.40;;
37609;SDS011;23457;51.966;8.230;2023-06-14T11:31:28;2.58;;;1.70;;
37609;SDS011;23457;51.966;8.230;2023-06-14T11:33:57;2.83;;;1.70;;
37609;SDS011;23457;51.966;8.230;2023-06-14T11:36:29;3.97;;;1.60;;
37609;SDS011;23457;51.966;8.230;2023-06-14T11:39:06;4.25;;;1.58;;
37609;SDS011;23457;51.966;8.230;2023-06-14T11:41:43;7.53;;;1.42;;
37609;SDS011;23457;51.966;8.230;2023-06-14T11:44:26;5.03;;;1.30;;
37609;SDS011;23457;51.966;8.230;2023-06-14T11:47:03;2.38;;;1.38;;
37609;SDS011;23457;51.966;8.230;2023-06-14T11:49:50;5.32;;;1.40;;
37609;SDS011;23457;51.966;8.230;2023-06-14T11:52:17;3.45;;;1.80;;
37609;SDS011;23457;51.966;8.230;2023-06-14T11:54:44;4.07;;;1.70;;
37609;SDS011;23457;51.966;8.230;2023-06-14T11:59:41;5.70;;;1.27;;
37609;SDS011;23457;51.966;8.230;2023-06-14T12:02:13;2.67;;;1.25;;
37609;SDS011;23457;51.966;8.230;2023-06-14T12:04:41;2.22;;;1.30;;
37609;SDS011;23457;51.966;8.230;2023-06-14T12:07:11;2.28;;;1.20;;
37609;SDS011;23457;51.966;8.230;2023-06-14T13:48:11;4.95;;;1.80;;
37609;SDS011;23457;51.966;8.230;2023-06-14T13:50:38;5.15;;;1.65;;
37609;SDS011;23457;51.966;8.230;2023-06-14T13:53:05;1.67;;;1.35;;
37609;SDS011;23457;51.966;8.230;2023-06-14T13:55:49;1.88;;;1.52;;
37609;SDS011;23457;51.966;8.230;2023-06-14T13:58:16;4.47;;;1.20;;
37609;SDS011;23457;51.966;8.230;2023-06-14T14:00:42;3.13;;;1.55;;
37609;SDS011;23457;51.966;8.230;2023-06-14T14:03:09;1.55;;;1.42;;
37609;SDS011;23457;51.966;8.230;2023-06-14T14:05:35;3.15;;;1.52;;
37609;SDS011;23457;51.966;8.230;2023-06-14T14:08:02;2.08;;;1.30;;
37609;SDS011;23457;51.966;8.230;2023-06-14T14:10:47;2.47;;;1.38;;
37609;SDS011;23457;51.966;8.230;2023-06-14T14:13:15;1.30;;;1.20;;
37609;SDS011;23457;51.966;8.230;2023-06-14T14:15:41;1.25;;;1.08;;
37609;SDS011;23457;51.966;8.230;2023-06-14T14:18:08;5.30;;;1.40;;
37609;SDS011;23457;51.966;8.230;2023-06-14T14:20:52;4.13;;;1.52;;
37609;SDS011;23457;51.966;8.230;2023-06-14T14:23:36;4.53;;;1.10;;
37609;SDS011;23457;51.966;8.230;2023-06-14T14:26:21;5.22;;;1.55;;
37609;SDS011;23457;51.966;8.230;2023-06-14T14:28:47;4.95;;;1.45;;
37609;SDS011;23457;51.966;8.230;2023-06-14T14:31:14;2.97;;;1.20;;
37609;SDS011;23457;51.966;8.230;2023-06-14T14:33:41;3.97;;;1.30;;
37609;SDS011;23457;51.966;8.230;2023-06-14T14:36:07;3.85;;;1.35;;
37609;SDS011;23457;51.966;8.230;2023-06-14T14:38:34;6.47;;;1.27;;
37609;SDS011;23457;51.966;8.230;2023-06-14T14:41:01;4.82;;;1.40;;
37609;SDS011;23457;51.966;8.230;2023-06-14T14:43:28;2.63;;;1.38;;
37609;SDS011;23457;51.966;8.230;2023-06-14T14:45:57;2.42;;;1.25;;
37609;SDS011;23457;51.966;8.230;2023-06-14T14:48:23;4.25;;;1.40;;
37609;SDS011;23457;51.966;8.230;2023-06-14T14:50:50;3.97;;;1.40;;
37609;SDS011;23457;51.966;8.230;2023-06-14T14:53:17;2.65;;;1.30;;
37609;SDS011;23457;51.966;8.230;2023-06-14T14:55:44;5.90;;;1.40;;
37609;SDS011;23457;51.966;8.230;2023-06-14T14:58:11;1.48;;;1.35;;
37609;SDS011;23457;51.966;8.230;2023-06-14T15:00:38;2.10;;;1.65;;
37609;SDS011;23457;51.966;8.230;2023-06-14T15:03:05;1.42;;;1.20;;
37609;SDS011;23457;51.966;8.230;2023-06-14T15:08:01;3.08;;;1.20;;
37609;SDS011;23457;51.966;8.230;2023-06-14T15:10:28;4.10;;;1.42;;
37609;SDS011;23457;51.966;8.230;2023-06-14T15:12:55;5.70;;;1.52;;
37609;SDS011;23457;51.966;8.230;2023-06-14T15:15:22;11.68;;;1.98;;
37609;SDS011;23457;51.966;8.230;2023-06-14T15:17:48;3.22;;;1.73;;
37609;SDS011;23457;51.966;8.230;2023-06-14T15:20:15;2.20;;;1.67;;
37609;SDS011;23457;51.966;8.230;2023-06-14T15:22:42;4.53;;;1.50;;
37609;SDS011;23457;51.966;8.230;2023-06-14T15:25:09;2.00;;;1.48;;
37609;SDS011;23457;51.966;8.230;2023-06-14T15:27:37;1.80;;;1.60;;
37609;SDS011;23457;51.966;8.230;2023-06-14T15:30:03;3.08;;;1.60;;
37609;SDS011;23457;51.966;8.230;2023-06-14T15:32:30;3.10;;;1.67;;
37609;SDS011;23457;51.966;8.230;2023-06-14T15:34:57;2.67;;;1.95;;
37609;SDS011;23457;51.966;8.230;2023-06-14T15:37:24;1.70;;;1.60;;
37609;SDS011;23457;51.966;8.230;2023-06-14T15:39:51;4.20;;;1.60;;
37609;SDS011;23457;51.966;8.230;2023-06-14T15:42:17;4.63;;;1.52;;
37609;SDS011;23457;51.966;8.230;2023-06-14T16:17:03;5.00;;;2.25;;
37609;SDS011;23457;51.966;8.230;2023-06-14T16:19:30;3.47;;;2.22;;
37609;SDS011;23457;51.966;8.230;2023-06-14T16:21:57;4.10;;;2.40;;
37609;SDS011;23457;51.966;8.230;2023-06-14T16:24:23;5.50;;;2.50;;
37609;SDS011;23457;51.966;8.230;2023-06-14T16:26:50;3.45;;;2.20;;
37609;SDS011;23457;51.966;8.230;2023-06-14T16:29:20;3.53;;;2.38;;
37609;SDS011;23457;51.966;8.230;2023-06-14T16:31:47;8.57;;;3.05;;
37609;SDS011;23457;51.966;8.230;2023-06-14T16:34:14;5.50;;;1.98;;
37609;SDS011;23457;51.966;8.230;2023-06-14T16:36:45;5.45;;;2.03;;
37609;SDS011;23457;51.966;8.230;2023-06-14T16:39:12;6.60;;;2.63;;
37609;SDS011;23457;51.966;8.230;2023-06-14T16:41:39;4.22;;;2.38;;
37609;SDS011;23457;51.966;8.230;2023-06-14T16:44:05;3.00;;;2.42;;
37609;SDS011;23457;51.966;8.230;2023-06-14T16:46:32;3.38;;;2.10;;
37609;SDS011;23457;51.966;8.230;2023-06-14T16:49:00;4.13;;;2.38;;
37609;SDS011;23457;51.966;8.230;2023-06-14T16:51:27;7.85;;;2.50;;
37609;SDS011;23457;51.966;8.230;2023-06-14T16:53:54;5.25;;;2.47;;
37609;SDS011;23457;51.966;8.230;2023-06-14T16:56:22;8.38;;;2.30;;
37609;SDS011;23457;51.966;8.230;2023-06-14T16:58:56;7.13;;;2.38;;
37609;SDS011;23457;51.966;8.230;2023-06-14T17:01:24;10.65;;;2.13;;
37609;SDS011;23457;51.966;8.230;2023-06-14T17:03:52;6.72;;;2.70;;
37609;SDS011;23457;51.966;8.230;2023-06-14T17:06:19;5.68;;;3.00;;
37609;SDS011;23457;51.966;8.230;2023-06-14T17:08:50;8.13;;;3.10;;
37609;SDS011;23457;51.966;8.230;2023-06-14T17:11:19;3.95;;;2.33;;
37609;SDS011;23457;51.966;8.230;2023-06-14T17:13:49;7.45;;;2.63;;
37609;SDS011;23457;51.966;8.230;2023-06-14T17:16:16;3.80;;;2.67;;
37609;SDS011;23457;51.966;8.230;2023-06-14T17:18:44;5.30;;;2.70;;
37609;SDS011;23457;51.966;8.230;2023-06-14T17:21:12;5.55;;;2.72;;
37609;SDS011;23457;51.966;8.230;2023-06-14T17:23:40;9.07;;;2.50;;
37609;SDS011;23457;51.966;8.230;2023-06-14T17:26:07;3.40;;;2.70;;
37609;SDS011;23457;51.966;8.230;2023-06-14T17:28:34;3.97;;;2.30;;
37609;SDS011;23457;51.966;8.230;2023-06-14T17:31:02;6.28;;;2.72;;
37609;SDS011;23457;51.966;8.230;2023-06-14T17:33:29;7.50;;;3.33;;
37609;SDS011;23457;51.966;8.230;2023-06-14T17:35:55;10.93;;;3.20;;
37609;SDS011;23457;51.966;8.230;2023-06-14T17:38:22;6.38;;;2.60;;
37609;SDS011;23457;51.966;8.230;2023-06-14T17:40:51;5.65;;;3.10;;
37609;SDS011;23457;51.966;8.230;2023-06-14T17:43:18;8.10;;;3.30;;
37609;SDS011;23457;51.966;8.230;2023-06-14T17:45:44;5.13;;;2.95;;
37609;SDS011;23457;51.966;8.230;2023-06-14T17:48:11;6.85;;;3.25;;
37609;SDS011;23457;51.966;8.230;2023-06-14T17:50:38;7.15;;;3.17;;
37609;SDS011;23457;51.966;8.230;2023-06-14T17:53:05;6.28;;;2.83;;
37609;SDS011;23457;51.966;8.230;2023-06-14T17:55:33;5.00;;;2.58;;
37609;SDS011;23457;51.966;8.230;2023-06-14T17:58:01;5.55;;;2.30;;
37609;SDS011;23457;51.966;8.230;2023-06-14T18:00:29;7.03;;;2.70;;